Time,TemperatureF,DewpointF,PressureIn,WindDirection,WindDirectionDegrees,WindSpeedMPH,WindSpeedGustMPH,Humidity,HourlyPrecipIn,Conditions,Clouds,dailyrainin,SoftwareType,DateUTC
2014-01-12 00:02:00,30.8,27.4,29.84,WSW,258,2.0,3.5,87,0.00,OVC,FEW,0.00,WeatherDisplay:10.37,2014-01-12 06:02:00,
2014-01-12 00:07:00,30.7,27.6,29.84,West,270,1.6,4.6,88,0.00,OVC,FEW,0.00,WeatherDisplay:10.37,2014-01-12 06:07:00,
2014-01-12 00:10:00,30.7,27.6,29.84,West,270,2.1,3.5,88,0.00,OVC,FEW,0.00,WeatherDisplay:10.37,2014-01-12 06:10:00,
2014-01-12 00:15:00,30.6,27.5,29.85,SW,236,3.8,5.8,88,0.00,OVC,FEW,0.00,WeatherDisplay:10.37,2014-01-12 06:15:00,
2014-01-12 00:20:00,30.5,27.4,29.84,West,269,2.1,3.5,88,0.00,OVC,FEW,0.00,WeatherDisplay:10.37,2014-01-12 06:20:00,
2014-01-12 00:25:00,30.3,27.2,29.85,West,260,1.8,3.5,88,0.00,OVC,FEW,0.00,WeatherDisplay:10.37,2014-01-12 06:25:00,
2014-01-12 00:30:00,30.2,27.1,29.84,West,266,3.1,8.1,88,0.00,OVC,FEW,0.00,WeatherDisplay:10.37,2014-01-12 06:30:00,
2014-01-12 00:35:00,30.2,27.1,29.84,SW,225,0.8,3.5,88,0.00,OVC,FEW,0.00,WeatherDisplay:10.37,2014-01-12 06:35:00,
2014-01-12 00:40:00,30.1,27.0,29.84,WSW,252,2.0,6.9,88,0.00,OVC,FEW,0.00,WeatherDisplay:10.37,2014-01-12 06:40:00,
2014-01-12 00:45:00,30.0,27.2,29.84,West,264,2.1,5.8,89,0.00,OVC,FEW,0.00,WeatherDisplay:10.37,2014-01-12 06:45:00,
2014-01-12 00:50:00,29.9,27.1,29.84,West,264,1.2,2.3,89,0.00,OVC,FEW,0.00,WeatherDisplay:10.37,2014-01-12 06:50:00,
2014-01-12 00:55:00,29.8,27.0,29.84,SSW,195,1.4,2.3,89,0.00,OVC,FEW,0.00,WeatherDisplay:10.37,2014-01-12 06:55:00,
2014-01-12 01:00:00,29.7,26.9,29.84,SW,230,0.6,2.0,89,0.00,OVC,FEW,0.00,WeatherDisplay:10.37,2014-01-12 07:00:00,
2014-01-12 01:05:00,29.6,26.8,29.83,SSW,213,0.1,1.2,89,0.00,OVC,FEW,0.00,WeatherDisplay:10.37,2014-01-12 07:05:00,
2014-01-12 01:10:00,29.5,26.7,29.83,SSW,205,1.2,2.3,89,0.00,OVC,FEW,0.00,WeatherDisplay:10.37,2014-01-12 07:10:00,
2014-01-12 01:15:00,29.5,26.7,29.83,SW,228,2.9,4.0,89,0.00,OVC,FEW,0.00,WeatherDisplay:10.37,2014-01-12 07:15:00,
2014-01-12 01:20:00,29.4,26.6,29.83,SSW,213,4.0,6.9,89,0.00,OVC,FEW,0.00,WeatherDisplay:10.37,2014-01-12 07:20:00,
2014-01-12 01:25:00,29.3,26.5,29.83,SW,226,0.8,2.3,89,0.00,OVC,FEW,0.00,WeatherDisplay:10.37,2014-01-12 07:25:00,
2014-01-12 01:30:00,29.2,26.4,29.83,SW,228,1.4,3.5,89,0.00,OVC,FEW,0.00,WeatherDisplay:10.37,2014-01-12 07:30:00,
2014-01-12 01:35:00,29.0,26.4,29.83,SW,229,2.0,3.5,90,0.00,OVC,FEW,0.00,WeatherDisplay:10.37,2014-01-12 07:35:00,
2014-01-12 01:40:00,28.9,26.3,29.83,SW,221,2.5,5.8,90,0.00,OVC,FEW,0.00,WeatherDisplay:10.37,2014-01-12 07:40:00,
2014-01-12 01:45:00,28.8,26.2,29.83,SW,221,1.0,2.3,90,0.00,OVC,FEW,0.00,WeatherDisplay:10.37,2014-01-12 07:45:00,
2014-01-12 01:50:00,28.7,26.1,29.83,SW,221,1.6,3.5,90,0.00,OVC,FEW,0.00,WeatherDisplay:10.37,2014-01-12 07:50:00,
2014-01-12 01:55:00,28.6,26.3,29.83,SW,220,1.4,3.5,91,0.00,OVC,FEW,0.00,WeatherDisplay:10.37,2014-01-12 07:55:00,
2014-01-12 02:00:00,28.6,26.3,29.83,SW,219,0.4,1.2,91,0.00,OVC,FEW,0.00,WeatherDisplay:10.37,2014-01-12 08:00:00,
2014-01-12 02:05:00,28.5,26.2,29.83,SSW,213,1.3,3.5,91,0.00,CLR,FEW,0.00,WeatherDisplay:10.37,2014-01-12 08:05:00,
2014-01-12 02:10:00,28.4,26.1,29.83,SSW,211,1.0,2.3,91,0.00,CLR,FEW,0.00,WeatherDisplay:10.37,2014-01-12 08:10:00,
2014-01-12 02:15:00,28.4,26.1,29.83,SSW,211,1.2,3.5,91,0.00,CLR,FEW,0.00,WeatherDisplay:10.37,2014-01-12 08:15:00,
2014-01-12 02:20:00,28.3,26.0,29.83,SW,221,1.1,2.3,91,0.00,CLR,FEW,0.00,WeatherDisplay:10.37,2014-01-12 08:20:00,
2014-01-12 02:25:00,28.2,26.2,29.83,SW,215,0.1,1.2,92,0.00,CLR,FEW,0.00,WeatherDisplay:10.37,2014-01-12 08:25:00,
2014-01-12 02:30:00,28.1,26.1,29.83,SSE,150,1.1,3.5,92,0.00,CLR,FEW,0.00,WeatherDisplay:10.37,2014-01-12 08:30:00,
2014-01-12 02:35:00,28.0,26.0,29.83,SSE,152,0.8,2.3,92,0.00,CLR,FEW,0.00,WeatherDisplay:10.37,2014-01-12 08:35:00,
2014-01-12 02:40:00,28.0,26.0,29.84,SW,219,0.0,0.0,92,0.00,CLR,FEW,0.00,WeatherDisplay:10.37,2014-01-12 08:40:00,
2014-01-12 02:45:00,27.9,25.9,29.83,SW,220,1.6,3.5,92,0.00,CLR,FEW,0.00,WeatherDisplay:10.37,2014-01-12 08:45:00,
2014-01-12 02:50:00,27.9,25.9,29.83,SW,215,2.7,4.6,92,0.00,CLR,FEW,0.00,WeatherDisplay:10.37,2014-01-12 08:50:00,
2014-01-12 02:55:00,27.8,25.8,29.83,SW,216,1.7,4.6,92,0.00,CLR,FEW,0.00,WeatherDisplay:10.37,2014-01-12 08:55:00,
2014-01-12 03:00:00,27.8,25.8,29.82,SW,223,1.2,3.5,92,0.00,CLR,FEW,0.00,WeatherDisplay:10.37,2014-01-12 09:00:00,
2014-01-12 03:05:00,27.7,25.7,29.83,SW,223,0.1,1.2,92,0.00,CLR,FEW,0.00,WeatherDisplay:10.37,2014-01-12 09:05:00,
2014-01-12 03:10:00,27.6,25.6,29.83,SW,223,0.6,2.3,92,0.00,CLR,FEW,0.00,WeatherDisplay:10.37,2014-01-12 09:10:00,
2014-01-12 03:15:00,27.5,25.5,29.83,SW,223,0.4,2.3,92,0.00,CLR,FEW,0.00,WeatherDisplay:10.37,2014-01-12 09:15:00,
2014-01-12 03:20:00,27.4,25.4,29.82,SW,222,0.5,1.2,92,0.00,CLR,FEW,0.00,WeatherDisplay:10.37,2014-01-12 09:20:00,
2014-01-12 03:25:00,27.4,25.4,29.82,SW,222,0.3,1.2,92,0.00,CLR,FEW,0.00,WeatherDisplay:10.37,2014-01-12 09:25:00,
2014-01-12 03:30:00,27.3,25.3,29.82,SW,222,0.1,1.2,92,0.00,CLR,FEW,0.00,WeatherDisplay:10.37,2014-01-12 09:30:00,
2014-01-12 03:35:00,27.2,25.4,29.82,SSW,192,0.1,1.2,93,0.00,CLR,FEW,0.00,WeatherDisplay:10.37,2014-01-12 09:35:00,
2014-01-12 03:40:00,27.2,25.4,29.82,SSW,192,0.5,2.3,93,0.00,CLR,FEW,0.00,WeatherDisplay:10.37,2014-01-12 09:40:00,
2014-01-12 03:45:00,27.1,25.3,29.82,SSW,192,0.5,1.2,93,0.00,CLR,FEW,0.00,WeatherDisplay:10.37,2014-01-12 09:45:00,
2014-01-12 03:50:00,27.1,25.3,29.82,SSW,192,0.2,1.2,93,0.00,CLR,FEW,0.00,WeatherDisplay:10.37,2014-01-12 09:50:00,
2014-01-12 03:55:00,27.0,25.2,29.81,SSW,192,0.1,2.3,93,0.00,CLR,FEW,0.00,WeatherDisplay:10.37,2014-01-12 09:55:00,
2014-01-12 04:00:00,27.0,25.2,29.81,SSE,158,0.2,2.0,93,0.00,CLR,FEW,0.00,WeatherDisplay:10.37,2014-01-12 10:00:00,
2014-01-12 04:06:00,27.0,25.2,29.80,SE,132,0.4,1.2,93,0.00,CLR,FEW,0.00,WeatherDisplay:10.37,2014-01-12 10:06:00,
2014-01-12 04:11:00,27.0,25.2,29.79,SE,134,0.9,2.3,93,0.00,CLR,FEW,0.00,WeatherDisplay:10.37,2014-01-12 10:11:00,
2014-01-12 04:16:00,27.0,25.2,29.80,South,190,1.1,2.3,93,0.00,CLR,FEW,0.00,WeatherDisplay:10.37,2014-01-12 10:16:00,
2014-01-12 04:21:00,26.9,25.1,29.80,South,190,0.6,2.3,93,0.00,CLR,FEW,0.00,WeatherDisplay:10.37,2014-01-12 10:21:00,
2014-01-12 04:26:00,26.9,25.1,29.80,South,188,0.7,2.3,93,0.00,CLR,FEW,0.00,WeatherDisplay:10.37,2014-01-12 10:26:00,
2014-01-12 04:31:00,26.8,25.0,29.80,South,188,0.5,1.2,93,0.00,CLR,FEW,0.00,WeatherDisplay:10.37,2014-01-12 10:31:00,
2014-01-12 04:36:00,26.7,24.9,29.80,South,190,0.7,1.2,93,0.00,CLR,FEW,0.00,WeatherDisplay:10.37,2014-01-12 10:36:00,
2014-01-12 04:41:00,26.7,24.9,29.80,SE,132,0.6,2.3,93,0.00,CLR,FEW,0.00,WeatherDisplay:10.37,2014-01-12 10:41:00,
2014-01-12 04:46:00,26.8,25.0,29.79,SSE,167,1.6,3.5,93,0.00,CLR,FEW,0.00,WeatherDisplay:10.37,2014-01-12 10:46:00,
2014-01-12 04:51:00,26.8,25.0,29.79,South,182,0.6,3.5,93,0.00,CLR,FEW,0.00,WeatherDisplay:10.37,2014-01-12 10:51:00,
2014-01-12 04:56:00,26.7,24.9,29.79,South,182,0.9,2.3,93,0.00,CLR,FEW,0.00,WeatherDisplay:10.37,2014-01-12 10:56:00,
2014-01-12 05:01:00,26.6,24.8,29.80,South,180,0.9,2.3,93,0.00,CLR,FEW,0.00,WeatherDisplay:10.37,2014-01-12 11:01:00,
2014-01-12 05:06:00,26.7,24.9,29.79,South,180,0.7,1.2,93,0.00,CLR,FEW,0.00,WeatherDisplay:10.37,2014-01-12 11:06:00,
2014-01-12 05:11:00,26.7,24.9,29.79,South,180,0.7,2.3,93,0.00,CLR,FEW,0.00,WeatherDisplay:10.37,2014-01-12 11:11:00,
2014-01-12 05:16:00,26.7,24.9,29.79,South,180,0.4,2.3,93,0.00,CLR,FEW,0.00,WeatherDisplay:10.37,2014-01-12 11:16:00,
2014-01-12 05:21:00,26.7,24.9,29.79,SSW,192,0.2,2.3,93,0.00,CLR,FEW,0.00,WeatherDisplay:10.37,2014-01-12 11:21:00,
2014-01-12 05:26:00,26.7,24.9,29.79,South,181,1.4,5.0,93,0.00,CLR,FEW,0.00,WeatherDisplay:10.37,2014-01-12 11:26:00,
2014-01-12 05:31:00,26.8,25.3,29.78,South,180,1.2,2.3,94,0.00,CLR,FEW,0.00,WeatherDisplay:10.37,2014-01-12 11:31:00,
2014-01-12 05:36:00,26.8,25.0,29.78,South,180,1.1,2.3,93,0.00,CLR,FEW,0.00,WeatherDisplay:10.37,2014-01-12 11:36:00,
2014-01-12 05:41:00,26.8,25.0,29.78,South,180,0.9,2.3,93,0.00,CLR,FEW,0.00,WeatherDisplay:10.37,2014-01-12 11:41:00,
2014-01-12 05:46:00,26.9,25.1,29.77,South,175,1.6,3.5,93,0.00,CLR,FEW,0.00,WeatherDisplay:10.37,2014-01-12 11:46:00,
2014-01-12 05:51:00,27.0,25.5,29.77,SE,146,1.0,2.3,94,0.00,CLR,FEW,0.00,WeatherDisplay:10.37,2014-01-12 11:51:00,
2014-01-12 05:56:00,27.1,25.6,29.77,South,173,1.6,3.5,94,0.00,CLR,FEW,0.00,WeatherDisplay:10.37,2014-01-12 11:56:00,
2014-01-12 06:01:00,27.2,25.4,29.77,South,173,1.2,2.3,93,0.00,CLR,FEW,0.00,WeatherDisplay:10.37,2014-01-12 12:01:00,
2014-01-12 06:06:00,27.2,25.4,29.76,SE,131,2.1,4.6,93,0.00,CLR,FEW,0.00,WeatherDisplay:10.37,2014-01-12 12:06:00,
2014-01-12 06:11:00,27.4,25.6,29.76,South,186,1.8,3.5,93,0.00,CLR,FEW,0.00,WeatherDisplay:10.37,2014-01-12 12:11:00,
2014-01-12 06:16:00,27.5,25.7,29.77,South,184,1.4,3.5,93,0.00,CLR,FEW,0.00,WeatherDisplay:10.37,2014-01-12 12:16:00,
2014-01-12 06:21:00,27.6,25.8,29.77,South,184,1.3,2.3,93,0.00,CLR,FEW,0.00,WeatherDisplay:10.37,2014-01-12 12:21:00,
2014-01-12 06:26:00,27.7,25.9,29.77,South,174,1.0,2.3,93,0.00,CLR,FEW,0.00,WeatherDisplay:10.37,2014-01-12 12:26:00,
2014-01-12 06:31:00,27.7,25.9,29.76,South,174,1.1,2.3,93,0.00,CLR,FEW,0.00,WeatherDisplay:10.37,2014-01-12 12:31:00,
2014-01-12 06:36:00,27.8,26.0,29.77,South,174,0.8,2.3,93,0.00,CLR,FEW,0.00,WeatherDisplay:10.37,2014-01-12 12:36:00,
2014-01-12 06:41:00,27.8,26.0,29.77,South,174,1.0,2.3,93,0.00,CLR,FEW,0.00,WeatherDisplay:10.37,2014-01-12 12:41:00,
2014-01-12 06:46:00,27.9,26.1,29.77,South,174,0.8,2.3,93,0.00,CLR,FEW,0.00,WeatherDisplay:10.37,2014-01-12 12:46:00,
2014-01-12 06:51:00,27.9,26.1,29.77,South,174,0.9,2.3,93,0.00,CLR,FEW,0.00,WeatherDisplay:10.37,2014-01-12 12:51:00,
2014-01-12 06:56:00,27.9,26.1,29.77,South,175,0.6,2.3,93,0.00,CLR,FEW,0.00,WeatherDisplay:10.37,2014-01-12 12:56:00,
2014-01-12 07:01:00,28.0,26.2,29.77,South,175,0.5,1.2,93,0.00,CLR,FEW,0.00,WeatherDisplay:10.37,2014-01-12 13:01:00,
2014-01-12 07:06:00,28.0,26.2,29.77,South,174,1.0,2.3,93,0.00,CLR,FEW,0.00,WeatherDisplay:10.37,2014-01-12 13:06:00,
2014-01-12 07:11:00,28.2,26.4,29.76,SSE,161,0.6,2.3,93,0.00,CLR,FEW,0.00,WeatherDisplay:10.37,2014-01-12 13:11:00,
2014-01-12 07:16:00,28.3,26.5,29.76,SSE,161,1.0,2.3,93,0.00,CLR,FEW,0.00,WeatherDisplay:10.37,2014-01-12 13:16:00,
2014-01-12 07:21:00,28.3,26.5,29.77,SE,143,1.7,4.0,93,0.00,CLR,FEW,0.00,WeatherDisplay:10.37,2014-01-12 13:21:00,
2014-01-12 07:26:00,28.5,26.7,29.76,SSE,153,1.6,5.8,93,0.00,CLR,FEW,0.00,WeatherDisplay:10.37,2014-01-12 13:26:00,
2014-01-12 07:31:00,28.7,26.9,29.76,South,185,1.7,3.5,93,0.00,CLR,FEW,0.00,WeatherDisplay:10.37,2014-01-12 13:31:00,
2014-01-12 07:36:00,29.0,27.2,29.75,South,174,1.0,2.3,93,0.00,CLR,FEW,0.00,WeatherDisplay:10.37,2014-01-12 13:36:00,
2014-01-12 07:41:00,29.2,27.2,29.75,SSE,150,1.9,4.0,92,0.00,CLR,FEW,0.00,WeatherDisplay:10.37,2014-01-12 13:41:00,
2014-01-12 07:46:00,29.5,27.5,29.75,SSE,150,1.5,3.5,92,0.00,CLR,FEW,0.00,WeatherDisplay:10.37,2014-01-12 13:46:00,
2014-01-12 07:51:00,30.0,27.7,29.75,SSE,147,1.1,2.3,91,0.00,CLR,FEW,0.00,WeatherDisplay:10.37,2014-01-12 13:51:00,
2014-01-12 07:56:00,30.3,28.0,29.75,SSE,147,1.4,3.5,91,0.00,CLR,FEW,0.00,WeatherDisplay:10.37,2014-01-12 13:56:00,
2014-01-12 08:01:00,30.6,28.0,29.76,SE,138,1.5,3.0,90,0.00,CLR,FEW,0.00,WeatherDisplay:10.37,2014-01-12 14:01:00,
2014-01-12 08:06:00,30.8,28.2,29.76,SSE,166,1.8,3.5,90,0.00,CLR,FEW,0.00,WeatherDisplay:10.37,2014-01-12 14:06:00,
2014-01-12 08:11:00,31.1,28.2,29.75,SSE,157,1.7,3.5,89,0.00,CLR,FEW,0.00,WeatherDisplay:10.37,2014-01-12 14:11:00,
2014-01-12 08:16:00,31.3,28.4,29.75,South,177,2.2,3.5,89,0.00,CLR,FEW,0.00,WeatherDisplay:10.37,2014-01-12 14:16:00,
2014-01-12 08:21:00,31.5,28.6,29.75,SSW,198,1.2,3.5,89,0.00,CLR,FEW,0.00,WeatherDisplay:10.37,2014-01-12 14:21:00,
2014-01-12 08:26:00,31.7,28.6,29.75,South,188,1.3,3.5,88,0.00,CLR,FEW,0.00,WeatherDisplay:10.37,2014-01-12 14:26:00,
2014-01-12 08:31:00,32.1,28.9,29.75,SSW,192,1.6,3.5,88,0.00,CLR,FEW,0.00,WeatherDisplay:10.37,2014-01-12 14:31:00,
2014-01-12 08:36:00,32.6,29.2,29.75,South,188,2.1,4.6,87,0.00,CLR,FEW,0.00,WeatherDisplay:10.37,2014-01-12 14:36:00,
2014-01-12 08:41:00,33.1,29.4,29.75,SSE,148,3.8,8.1,86,0.00,CLR,FEW,0.00,WeatherDisplay:10.37,2014-01-12 14:41:00,
2014-01-12 08:46:00,33.4,29.4,29.75,SSE,155,2.7,6.9,85,0.00,CLR,FEW,0.00,WeatherDisplay:10.37,2014-01-12 14:46:00,
2014-01-12 08:51:00,33.5,29.5,29.75,SSE,149,2.8,4.6,85,0.00,CLR,FEW,0.00,WeatherDisplay:10.37,2014-01-12 14:51:00,
2014-01-12 08:56:00,33.7,29.7,29.75,SW,220,2.5,6.0,85,0.00,CLR,FEW,0.00,WeatherDisplay:10.37,2014-01-12 14:56:00,
2014-01-12 09:01:00,34.0,29.7,29.75,South,170,1.8,3.5,84,0.00,CLR,FEW,0.00,WeatherDisplay:10.37,2014-01-12 15:01:00,
2014-01-12 09:06:00,34.2,29.9,29.75,SE,143,1.6,3.5,84,0.00,CLR,FEW,0.00,WeatherDisplay:10.37,2014-01-12 15:06:00,
2014-01-12 09:11:00,34.3,30.0,29.75,SSE,162,2.2,5.0,84,0.00,CLR,FEW,0.00,WeatherDisplay:10.37,2014-01-12 15:11:00,
2014-01-12 09:16:00,34.5,29.9,29.75,SSE,154,1.0,2.3,83,0.00,CLR,FEW,0.00,WeatherDisplay:10.37,2014-01-12 15:16:00,
2014-01-12 09:21:00,34.6,30.0,29.75,SSE,167,3.3,5.8,83,0.00,CLR,FEW,0.00,WeatherDisplay:10.37,2014-01-12 15:21:00,
2014-01-12 09:26:00,34.9,30.0,29.75,South,188,2.0,3.5,82,0.00,CLR,FEW,0.00,WeatherDisplay:10.37,2014-01-12 15:26:00,
2014-01-12 09:31:00,35.2,30.3,29.75,South,169,2.2,3.5,82,0.00,CLR,FEW,0.00,WeatherDisplay:10.37,2014-01-12 15:31:00,
2014-01-12 09:36:00,35.7,30.4,29.74,ESE,119,1.8,3.5,81,0.00,CLR,FEW,0.00,WeatherDisplay:10.37,2014-01-12 15:36:00,
2014-01-12 09:41:00,36.2,30.3,29.74,SE,142,3.0,5.8,79,0.00,CLR,FEW,0.00,WeatherDisplay:10.37,2014-01-12 15:41:00,
2014-01-12 09:46:00,36.8,30.6,29.73,ESE,116,2.1,3.5,78,0.00,CLR,FEW,0.00,WeatherDisplay:10.37,2014-01-12 15:46:00,
2014-01-12 09:51:00,37.4,30.5,29.73,SE,145,2.6,7.0,76,0.00,CLR,FEW,0.00,WeatherDisplay:10.37,2014-01-12 15:51:00,
2014-01-12 09:56:00,38.2,30.6,29.73,WSW,246,3.5,6.0,74,0.00,CLR,FEW,0.00,WeatherDisplay:10.37,2014-01-12 15:56:00,
2014-01-12 10:01:00,38.8,30.5,29.72,SSE,165,3.7,6.9,72,0.00,CLR,FEW,0.00,WeatherDisplay:10.37,2014-01-12 16:01:00,
2014-01-12 10:06:00,39.3,31.0,29.72,SW,233,2.4,4.6,72,0.00,CLR,FEW,0.00,WeatherDisplay:10.37,2014-01-12 16:06:00,
2014-01-12 10:11:00,39.8,30.5,29.72,ESE,110,4.9,12.7,69,0.00,CLR,FEW,0.00,WeatherDisplay:10.37,2014-01-12 16:11:00,
2014-01-12 10:16:00,40.4,30.7,29.71,SE,129,4.9,8.0,68,0.00,CLR,FEW,0.00,WeatherDisplay:10.37,2014-01-12 16:16:00,
2014-01-12 10:21:00,40.7,30.6,29.71,South,169,4.3,9.2,67,0.00,CLR,FEW,0.00,WeatherDisplay:10.37,2014-01-12 16:21:00,
2014-01-12 10:26:00,40.9,30.4,29.71,SSW,192,2.9,5.0,66,0.00,CLR,FEW,0.00,WeatherDisplay:10.37,2014-01-12 16:26:00,
2014-01-12 10:31:00,40.9,30.4,29.71,South,181,4.8,10.4,66,0.00,CLR,FEW,0.00,WeatherDisplay:10.37,2014-01-12 16:31:00,
2014-01-12 10:36:00,41.0,30.5,29.70,South,183,3.5,7.0,66,0.00,CLR,FEW,0.00,WeatherDisplay:10.37,2014-01-12 16:36:00,
2014-01-12 10:41:00,41.3,30.8,29.70,South,180,4.1,7.0,66,0.00,CLR,FEW,0.00,WeatherDisplay:10.37,2014-01-12 16:41:00,
2014-01-12 10:46:00,41.6,29.9,29.69,South,185,5.2,11.5,63,0.00,CLR,FEW,0.00,WeatherDisplay:10.37,2014-01-12 16:46:00,
2014-01-12 10:51:00,41.8,30.5,29.69,South,190,4.0,8.0,64,0.00,CLR,FEW,0.00,WeatherDisplay:10.37,2014-01-12 16:51:00,
2014-01-12 10:56:00,42.2,30.1,29.69,SSW,202,3.3,10.4,62,0.00,CLR,FEW,0.00,WeatherDisplay:10.37,2014-01-12 16:56:00,
2014-01-12 11:01:00,42.6,30.5,29.68,SSE,165,3.4,9.2,62,0.00,CLR,FEW,0.00,WeatherDisplay:10.37,2014-01-12 17:01:00,
2014-01-12 11:06:00,43.0,30.1,29.68,South,178,5.7,9.2,60,0.00,CLR,FEW,0.00,WeatherDisplay:10.37,2014-01-12 17:06:00,
2014-01-12 11:11:00,43.3,29.9,29.67,ESE,113,6.6,11.5,59,0.00,CLR,FEW,0.00,WeatherDisplay:10.37,2014-01-12 17:11:00,
2014-01-12 11:16:00,43.6,29.8,29.66,SSW,209,3.8,13.0,58,0.00,CLR,FEW,0.00,WeatherDisplay:10.37,2014-01-12 17:16:00,
2014-01-12 11:21:00,43.8,30.0,29.66,South,178,3.4,11.5,58,0.00,CLR,FEW,0.00,WeatherDisplay:10.37,2014-01-12 17:21:00,
2014-01-12 11:26:00,44.0,30.2,29.66,SSE,161,3.3,4.6,58,0.00,CLR,FEW,0.00,WeatherDisplay:10.37,2014-01-12 17:26:00,
2014-01-12 11:31:00,44.2,30.3,29.65,SSW,199,5.9,10.4,58,0.00,CLR,FEW,0.00,WeatherDisplay:10.37,2014-01-12 17:31:00,
2014-01-12 11:36:00,44.5,30.6,29.64,SE,137,4.1,8.0,58,0.00,CLR,FEW,0.00,WeatherDisplay:10.37,2014-01-12 17:36:00,
2014-01-12 11:41:00,44.9,30.6,29.64,SSE,166,4.6,9.2,57,0.00,CLR,FEW,0.00,WeatherDisplay:10.37,2014-01-12 17:41:00,
2014-01-12 11:46:00,45.2,30.9,29.63,SSE,155,3.2,10.4,57,0.00,CLR,FEW,0.00,WeatherDisplay:10.37,2014-01-12 17:46:00,
2014-01-12 11:51:00,45.3,31.0,29.62,East,85,4.0,8.0,57,0.00,CLR,FEW,0.00,WeatherDisplay:10.37,2014-01-12 17:51:00,
2014-01-12 11:56:00,45.2,30.9,29.61,South,182,5.2,11.5,57,0.00,CLR,FEW,0.00,WeatherDisplay:10.37,2014-01-12 17:56:00,
2014-01-12 12:01:00,45.2,30.9,29.61,South,176,2.4,9.2,57,0.00,CLR,FEW,0.00,WeatherDisplay:10.37,2014-01-12 18:01:00,
2014-01-12 12:06:00,45.2,30.9,29.60,South,190,3.3,9.2,57,0.00,CLR,FEW,0.00,WeatherDisplay:10.37,2014-01-12 18:06:00,
2014-01-12 12:11:00,45.5,30.7,29.59,SSW,208,4.3,9.2,56,0.00,CLR,FEW,0.00,WeatherDisplay:10.37,2014-01-12 18:11:00,
2014-01-12 12:16:00,45.9,30.6,29.59,West,262,3.6,6.9,55,0.00,CLR,FEW,0.00,WeatherDisplay:10.37,2014-01-12 18:16:00,
2014-01-12 12:21:00,46.2,30.5,29.59,SW,215,4.0,7.0,54,0.00,CLR,FEW,0.00,WeatherDisplay:10.37,2014-01-12 18:21:00,
2014-01-12 12:26:00,46.6,30.8,29.59,South,184,2.9,5.0,54,0.00,CLR,FEW,0.00,WeatherDisplay:10.37,2014-01-12 18:26:00,
2014-01-12 12:31:00,46.8,30.6,29.59,SSE,150,4.0,8.1,53,0.00,CLR,FEW,0.00,WeatherDisplay:10.37,2014-01-12 18:31:00,
2014-01-12 12:36:00,46.8,30.6,29.59,SSE,157,5.1,9.2,53,0.00,CLR,FEW,0.00,WeatherDisplay:10.37,2014-01-12 18:36:00,
2014-01-12 12:41:00,46.9,30.6,29.59,SE,143,4.8,10.4,53,0.00,CLR,FEW,0.00,WeatherDisplay:10.37,2014-01-12 18:41:00,
2014-01-12 12:46:00,47.1,31.3,29.58,South,174,4.8,11.5,54,0.00,CLR,FEW,0.00,WeatherDisplay:10.37,2014-01-12 18:46:00,
2014-01-12 12:51:00,47.3,31.5,29.59,South,191,5.0,10.4,54,0.00,CLR,FEW,0.00,WeatherDisplay:10.37,2014-01-12 18:51:00,
2014-01-12 12:56:00,47.7,31.9,29.58,SSE,156,4.5,8.1,54,0.00,CLR,FEW,0.00,WeatherDisplay:10.37,2014-01-12 18:56:00,
2014-01-12 13:01:00,47.9,32.0,29.59,SW,227,4.1,7.0,54,0.00,CLR,FEW,0.00,WeatherDisplay:10.37,2014-01-12 19:01:00,
2014-01-12 13:06:00,48.0,31.7,29.58,SW,230,5.6,11.0,53,0.00,CLR,FEW,0.00,WeatherDisplay:10.37,2014-01-12 19:06:00,
2014-01-12 13:11:00,47.8,31.5,29.58,SSW,193,5.8,8.1,53,0.00,CLR,FEW,0.00,WeatherDisplay:10.37,2014-01-12 19:11:00,
2014-01-12 13:16:00,47.5,31.2,29.58,SSW,201,5.8,12.7,53,0.00,CLR,FEW,0.00,WeatherDisplay:10.37,2014-01-12 19:16:00,
2014-01-12 13:21:00,47.2,31.4,29.57,South,191,3.7,7.0,54,0.00,CLR,FEW,0.00,WeatherDisplay:10.37,2014-01-12 19:21:00,
2014-01-12 13:26:00,47.0,31.7,29.57,SW,226,4.0,10.4,55,0.00,CLR,FEW,0.00,WeatherDisplay:10.37,2014-01-12 19:26:00,
2014-01-12 13:31:00,46.8,31.9,29.57,South,175,3.8,10.4,56,0.00,CLR,FEW,0.00,WeatherDisplay:10.37,2014-01-12 19:31:00,
2014-01-12 13:36:00,46.7,32.3,29.56,South,187,3.1,6.9,57,0.00,CLR,FEW,0.00,WeatherDisplay:10.37,2014-01-12 19:36:00,
2014-01-12 13:41:00,46.7,32.3,29.56,South,178,3.9,8.0,57,0.00,CLR,FEW,0.00,WeatherDisplay:10.37,2014-01-12 19:41:00,
2014-01-12 13:46:00,46.7,32.3,29.56,SSE,153,3.5,9.0,57,0.00,CLR,FEW,0.00,WeatherDisplay:10.37,2014-01-12 19:46:00,
2014-01-12 13:51:00,46.6,32.6,29.56,SSE,155,2.9,5.8,58,0.00,CLR,FEW,0.00,WeatherDisplay:10.37,2014-01-12 19:51:00,
2014-01-12 13:56:00,46.6,32.6,29.56,SSW,209,1.6,5.8,58,0.00,CLR,FEW,0.00,WeatherDisplay:10.37,2014-01-12 19:56:00,
2014-01-12 14:01:00,46.6,32.2,29.55,SSW,212,3.7,6.9,57,0.00,CLR,FEW,0.00,WeatherDisplay:10.37,2014-01-12 20:01:00,
2014-01-12 14:06:00,46.5,32.5,29.55,SSW,194,3.7,6.0,58,0.00,CLR,FEW,0.00,WeatherDisplay:10.37,2014-01-12 20:06:00,
2014-01-12 14:11:00,46.5,32.5,29.55,SE,139,4.6,8.1,58,0.00,CLR,FEW,0.00,WeatherDisplay:10.37,2014-01-12 20:11:00,
2014-01-12 14:16:00,46.4,32.8,29.54,WSW,240,3.3,8.1,59,0.00,CLR,FEW,0.00,WeatherDisplay:10.37,2014-01-12 20:16:00,
2014-01-12 14:21:00,46.7,32.7,29.54,South,190,4.7,11.5,58,0.00,CLR,FEW,0.00,WeatherDisplay:10.37,2014-01-12 20:21:00,
2014-01-12 14:26:00,46.9,32.9,29.53,ESE,115,4.4,9.2,58,0.00,CLR,FEW,0.00,WeatherDisplay:10.37,2014-01-12 20:26:00,
2014-01-12 14:31:00,47.1,33.5,29.54,SSE,158,3.0,8.1,59,0.00,CLR,FEW,0.00,WeatherDisplay:10.37,2014-01-12 20:31:00,
2014-01-12 14:36:00,47.0,33.4,29.53,SSE,167,3.6,6.9,59,0.00,CLR,FEW,0.00,WeatherDisplay:10.37,2014-01-12 20:36:00,
2014-01-12 14:41:00,46.7,33.1,29.53,South,176,4.4,7.0,59,0.00,CLR,FEW,0.00,WeatherDisplay:10.37,2014-01-12 20:41:00,
2014-01-12 14:46:00,46.4,33.3,29.52,SW,219,4.8,9.2,60,0.00,CLR,FEW,0.00,WeatherDisplay:10.37,2014-01-12 20:46:00,
2014-01-12 14:51:00,46.3,33.2,29.52,South,171,6.0,11.5,60,0.00,CLR,FEW,0.00,WeatherDisplay:10.37,2014-01-12 20:51:00,
2014-01-12 14:56:00,46.2,33.5,29.53,SW,218,3.4,11.5,61,0.00,CLR,FEW,0.00,WeatherDisplay:10.37,2014-01-12 20:56:00,
2014-01-12 15:01:00,46.2,33.1,29.54,SSE,155,2.9,6.9,60,0.00,CLR,FEW,0.00,WeatherDisplay:10.37,2014-01-12 21:01:00,
2014-01-12 15:06:00,46.1,33.4,29.55,SSW,212,3.0,10.0,61,0.00,CLR,FEW,0.00,WeatherDisplay:10.37,2014-01-12 21:06:00,
2014-01-12 15:11:00,46.1,33.4,29.55,South,171,2.5,4.6,61,0.00,CLR,FEW,0.00,WeatherDisplay:10.37,2014-01-12 21:11:00,
2014-01-12 15:16:00,46.0,33.7,29.55,SW,224,1.6,3.5,62,0.00,CLR,FEW,0.00,WeatherDisplay:10.37,2014-01-12 21:16:00,
2014-01-12 15:21:00,45.9,33.6,29.55,SSW,196,2.2,3.5,62,0.00,CLR,FEW,0.00,WeatherDisplay:10.37,2014-01-12 21:21:00,
2014-01-12 15:26:00,45.8,33.5,29.55,SSW,192,1.5,3.0,62,0.00,CLR,FEW,0.00,WeatherDisplay:10.37,2014-01-12 21:26:00,
2014-01-12 15:31:00,45.7,33.4,29.55,South,190,3.4,6.9,62,0.00,CLR,FEW,0.00,WeatherDisplay:10.37,2014-01-12 21:31:00,
2014-01-12 15:36:00,45.7,33.4,29.55,SW,230,2.4,5.0,62,0.00,CLR,FEW,0.00,WeatherDisplay:10.37,2014-01-12 21:36:00,
2014-01-12 15:41:00,45.6,33.3,29.56,SW,229,2.3,6.0,62,0.00,CLR,FEW,0.00,WeatherDisplay:10.37,2014-01-12 21:41:00,
2014-01-12 15:46:00,45.7,33.4,29.56,SW,221,5.1,9.2,62,0.00,CLR,FEW,0.00,WeatherDisplay:10.37,2014-01-12 21:46:00,
2014-01-12 15:51:00,45.7,33.4,29.56,South,178,2.9,6.9,62,0.00,CLR,FEW,0.00,WeatherDisplay:10.37,2014-01-12 21:51:00,
2014-01-12 15:56:00,45.7,33.8,29.56,South,181,2.5,6.0,63,0.00,CLR,FEW,0.00,WeatherDisplay:10.37,2014-01-12 21:56:00,
2014-01-12 16:01:00,45.7,33.8,29.56,SSW,209,2.1,4.0,63,0.00,CLR,FEW,0.00,WeatherDisplay:10.37,2014-01-12 22:01:00,
2014-01-12 16:06:00,45.5,33.6,29.56,South,180,2.9,4.6,63,0.00,CLR,FEW,0.00,WeatherDisplay:10.37,2014-01-12 22:06:00,
2014-01-12 16:11:00,45.5,34.0,29.57,SW,226,2.2,4.6,64,0.00,CLR,FEW,0.00,WeatherDisplay:10.37,2014-01-12 22:11:00,
2014-01-12 16:16:00,45.4,33.9,29.57,SW,217,1.5,3.5,64,0.00,CLR,FEW,0.00,WeatherDisplay:10.37,2014-01-12 22:16:00,
2014-01-12 16:21:00,45.4,33.9,29.57,SW,232,1.5,3.5,64,0.00,CLR,FEW,0.00,WeatherDisplay:10.37,2014-01-12 22:21:00,
2014-01-12 16:26:00,45.2,34.1,29.56,SSW,200,1.8,3.5,65,0.00,CLR,FEW,0.00,WeatherDisplay:10.37,2014-01-12 22:26:00,
2014-01-12 16:31:00,45.1,34.0,29.56,SSW,199,2.2,5.0,65,0.00,CLR,FEW,0.00,WeatherDisplay:10.37,2014-01-12 22:31:00,
2014-01-12 16:36:00,45.1,34.0,29.56,WSW,243,1.5,3.5,65,0.00,CLR,FEW,0.00,WeatherDisplay:10.37,2014-01-12 22:36:00,
2014-01-12 16:41:00,45.0,34.3,29.56,SSW,194,1.7,3.0,66,0.00,CLR,FEW,0.00,WeatherDisplay:10.37,2014-01-12 22:41:00,
2014-01-12 16:46:00,44.9,34.2,29.56,SSW,209,2.1,7.0,66,0.00,CLR,FEW,0.00,WeatherDisplay:10.37,2014-01-12 22:46:00,
2014-01-12 16:51:00,44.9,34.2,29.57,SW,231,2.8,4.6,66,0.00,CLR,FEW,0.00,WeatherDisplay:10.37,2014-01-12 22:51:00,
2014-01-12 16:56:00,44.9,34.2,29.56,South,173,2.0,3.5,66,0.00,CLR,FEW,0.00,WeatherDisplay:10.37,2014-01-12 22:56:00,
2014-01-12 17:01:00,44.8,34.1,29.57,South,175,1.9,3.5,66,0.00,CLR,FEW,0.00,WeatherDisplay:10.37,2014-01-12 23:01:00,
2014-01-12 17:06:00,44.7,34.4,29.56,South,173,1.2,2.3,67,0.00,CLR,FEW,0.00,WeatherDisplay:10.37,2014-01-12 23:06:00,
2014-01-12 17:11:00,44.6,34.3,29.57,SW,225,1.7,5.0,67,0.00,CLR,FEW,0.00,WeatherDisplay:10.37,2014-01-12 23:11:00,
2014-01-12 17:16:00,44.7,34.4,29.57,SSW,199,1.7,3.0,67,0.00,CLR,FEW,0.00,WeatherDisplay:10.37,2014-01-12 23:16:00,
2014-01-12 17:21:00,44.8,34.5,29.57,SW,230,4.1,6.9,67,0.00,CLR,FEW,0.00,WeatherDisplay:10.37,2014-01-12 23:21:00,
2014-01-12 17:26:00,44.9,34.6,29.57,SW,230,2.8,8.1,67,0.00,CLR,FEW,0.00,WeatherDisplay:10.37,2014-01-12 23:26:00,
2014-01-12 17:31:00,45.0,34.7,29.58,SW,222,3.3,7.0,67,0.00,CLR,FEW,0.00,WeatherDisplay:10.37,2014-01-12 23:31:00,
2014-01-12 17:36:00,45.1,34.8,29.57,SW,219,2.3,7.0,67,0.00,CLR,FEW,0.00,WeatherDisplay:10.37,2014-01-12 23:36:00,
2014-01-12 17:41:00,45.1,34.8,29.57,SSE,164,3.4,9.2,67,0.00,CLR,FEW,0.00,WeatherDisplay:10.37,2014-01-12 23:41:00,
2014-01-12 17:46:00,45.1,34.8,29.57,SSW,201,1.9,3.5,67,0.00,CLR,FEW,0.00,WeatherDisplay:10.37,2014-01-12 23:46:00,
2014-01-12 17:51:00,44.9,34.6,29.57,SSW,202,1.4,3.5,67,0.00,CLR,FEW,0.00,WeatherDisplay:10.37,2014-01-12 23:51:00,
2014-01-12 17:56:00,44.6,34.7,29.57,SSW,213,1.5,3.5,68,0.00,CLR,FEW,0.00,WeatherDisplay:10.37,2014-01-12 23:56:00,
2014-01-12 18:01:00,44.5,34.6,29.57,South,185,1.0,3.5,68,0.00,CLR,FEW,0.00,WeatherDisplay:10.37,2014-01-13 00:01:00,
2014-01-12 18:06:00,44.5,35.0,29.58,SW,230,1.7,3.5,69,0.00,CLR,FEW,0.00,WeatherDisplay:10.37,2014-01-13 00:06:00,
2014-01-12 18:11:00,44.4,34.9,29.58,WSW,242,1.4,3.5,69,0.00,CLR,FEW,0.00,WeatherDisplay:10.37,2014-01-13 00:11:00,
2014-01-12 18:16:00,44.5,35.0,29.58,SSW,196,0.4,6.9,69,0.00,CLR,FEW,0.00,WeatherDisplay:10.37,2014-01-13 00:16:00,
2014-01-12 18:21:00,44.3,34.8,29.58,South,180,1.5,3.0,69,0.00,CLR,FEW,0.00,WeatherDisplay:10.37,2014-01-13 00:21:00,
2014-01-12 18:26:00,44.2,34.7,29.58,SW,224,2.9,5.0,69,0.00,CLR,FEW,0.00,WeatherDisplay:10.37,2014-01-13 00:26:00,
2014-01-12 18:31:00,44.1,34.9,29.58,SSW,202,1.6,3.5,70,0.00,CLR,FEW,0.00,WeatherDisplay:10.37,2014-01-13 00:31:00,
2014-01-12 18:36:00,44.1,34.9,29.58,SW,223,1.5,5.8,70,0.00,CLR,FEW,0.00,WeatherDisplay:10.37,2014-01-13 00:36:00,
2014-01-12 18:42:00,43.9,34.7,29.58,SSW,193,1.3,2.3,70,0.00,CLR,FEW,0.00,WeatherDisplay:10.37,2014-01-13 00:42:00,
2014-01-12 18:47:00,43.9,34.7,29.58,South,182,1.3,3.5,70,0.00,CLR,FEW,0.00,WeatherDisplay:10.37,2014-01-13 00:47:00,
2014-01-12 18:52:00,43.8,35.0,29.58,South,182,0.6,2.3,71,0.00,CLR,FEW,0.00,WeatherDisplay:10.37,2014-01-13 00:52:00,
2014-01-12 18:57:00,43.6,34.8,29.58,South,177,1.2,3.5,71,0.00,CLR,FEW,0.00,WeatherDisplay:10.37,2014-01-13 00:57:00,
2014-01-12 19:02:00,43.3,34.9,29.58,South,177,0.6,2.3,72,0.00,CLR,FEW,0.00,WeatherDisplay:10.37,2014-01-13 01:02:00,
2014-01-12 19:07:00,43.1,34.7,29.58,South,177,1.2,2.3,72,0.00,CLR,FEW,0.00,WeatherDisplay:10.37,2014-01-13 01:07:00,
2014-01-12 19:12:00,42.8,34.7,29.58,South,177,1.0,2.3,73,0.00,CLR,FEW,0.00,WeatherDisplay:10.37,2014-01-13 01:12:00,
2014-01-12 19:17:00,42.6,34.5,29.58,South,177,0.1,2.3,73,0.00,CLR,FEW,0.00,WeatherDisplay:10.37,2014-01-13 01:17:00,
2014-01-12 19:22:00,42.3,34.6,29.58,South,177,0.6,2.3,74,0.00,CLR,FEW,0.00,WeatherDisplay:10.37,2014-01-13 01:22:00,
2014-01-12 19:27:00,42.0,34.3,29.58,South,177,0.9,2.3,74,0.00,CLR,FEW,0.00,WeatherDisplay:10.37,2014-01-13 01:27:00,
2014-01-12 19:32:00,41.7,34.4,29.58,South,175,1.2,2.0,75,0.00,CLR,FEW,0.00,WeatherDisplay:10.37,2014-01-13 01:32:00,
2014-01-12 19:37:00,41.6,34.3,29.58,South,175,0.3,1.2,75,0.00,CLR,FEW,0.00,WeatherDisplay:10.37,2014-01-13 01:37:00,
2014-01-12 19:42:00,41.3,34.3,29.58,South,175,0.4,1.2,76,0.00,CLR,FEW,0.00,WeatherDisplay:10.37,2014-01-13 01:42:00,
2014-01-12 19:47:00,41.3,34.3,29.58,SSE,165,2.3,4.6,76,0.00,CLR,FEW,0.00,WeatherDisplay:10.37,2014-01-13 01:47:00,
2014-01-12 19:52:00,41.3,34.3,29.58,SSE,165,1.0,2.3,76,0.00,CLR,FEW,0.00,WeatherDisplay:10.37,2014-01-13 01:52:00,
2014-01-12 19:57:00,41.3,34.3,29.58,SSE,165,0.3,1.2,76,0.00,CLR,FEW,0.00,WeatherDisplay:10.37,2014-01-13 01:57:00,
2014-01-12 20:02:00,41.1,34.1,29.58,SSE,165,0.2,1.2,76,0.00,CLR,FEW,0.00,WeatherDisplay:10.37,2014-01-13 02:02:00,
2014-01-12 20:07:00,41.0,34.3,29.58,SSE,165,0.9,2.0,77,0.00,CLR,FEW,0.00,WeatherDisplay:10.37,2014-01-13 02:07:00,
2014-01-12 20:12:00,41.1,34.4,29.58,South,184,1.2,2.3,77,0.00,CLR,FEW,0.00,WeatherDisplay:10.37,2014-01-13 02:12:00,
2014-01-12 20:17:00,41.1,34.4,29.58,South,184,1.6,2.3,77,0.00,CLR,FEW,0.00,WeatherDisplay:10.37,2014-01-13 02:17:00,
2014-01-12 20:22:00,41.1,34.4,29.57,South,184,1.0,2.3,77,0.00,CLR,FEW,0.00,WeatherDisplay:10.37,2014-01-13 02:22:00,
2014-01-12 20:27:00,41.1,34.4,29.57,South,184,1.1,2.3,77,0.00,CLR,FEW,0.00,WeatherDisplay:10.37,2014-01-13 02:27:00,
2014-01-12 20:32:00,41.0,34.3,29.58,South,173,1.1,2.3,77,0.00,CLR,FEW,0.00,WeatherDisplay:10.37,2014-01-13 02:32:00,
2014-01-12 20:37:00,41.0,34.7,29.58,South,173,1.0,2.3,78,0.00,CLR,FEW,0.00,WeatherDisplay:10.37,2014-01-13 02:37:00,
2014-01-12 20:42:00,40.8,34.5,29.58,South,174,0.9,2.0,78,0.00,CLR,FEW,0.00,WeatherDisplay:10.37,2014-01-13 02:42:00,
2014-01-12 20:47:00,40.8,34.5,29.58,SSW,200,1.1,2.3,78,0.00,CLR,FEW,0.00,WeatherDisplay:10.37,2014-01-13 02:47:00,
2014-01-12 20:52:00,40.7,34.4,29.57,SSW,206,2.4,3.5,78,0.00,CLR,FEW,0.00,WeatherDisplay:10.37,2014-01-13 02:52:00,
2014-01-12 20:57:00,40.9,34.6,29.57,SSW,200,1.1,3.5,78,0.00,CLR,FEW,0.00,WeatherDisplay:10.37,2014-01-13 02:57:00,
2014-01-12 21:02:00,40.9,34.6,29.57,SSW,198,1.4,3.0,78,0.00,CLR,FEW,0.00,WeatherDisplay:10.37,2014-01-13 03:02:00,
2014-01-12 21:07:00,40.9,34.6,29.57,SSW,194,1.3,2.3,78,0.00,CLR,FEW,0.00,WeatherDisplay:10.37,2014-01-13 03:07:00,
2014-01-12 21:12:00,40.9,34.6,29.57,South,188,1.9,3.5,78,0.00,CLR,FEW,0.00,WeatherDisplay:10.37,2014-01-13 03:12:00,
2014-01-12 21:17:00,40.9,34.6,29.57,SSW,192,1.9,3.5,78,0.00,CLR,FEW,0.00,WeatherDisplay:10.37,2014-01-13 03:17:00,
2014-01-12 21:22:00,40.8,34.8,29.57,South,175,1.7,3.5,79,0.00,CLR,FEW,0.00,WeatherDisplay:10.37,2014-01-13 03:22:00,
2014-01-12 21:27:00,40.7,34.7,29.57,SSE,163,2.2,5.0,79,0.00,CLR,FEW,0.00,WeatherDisplay:10.37,2014-01-13 03:27:00,
2014-01-12 21:32:00,40.6,34.6,29.57,SW,216,1.0,2.3,79,0.00,CLR,FEW,0.00,WeatherDisplay:10.37,2014-01-13 03:32:00,
2014-01-12 21:37:00,40.6,34.6,29.57,South,169,1.5,3.5,79,0.00,CLR,FEW,0.00,WeatherDisplay:10.37,2014-01-13 03:37:00,
2014-01-12 21:42:00,40.6,34.6,29.57,SSW,200,2.0,3.5,79,0.00,CLR,FEW,0.00,WeatherDisplay:10.37,2014-01-13 03:42:00,
2014-01-12 21:47:00,40.7,34.7,29.57,SSW,192,1.2,2.3,79,0.00,CLR,FEW,0.00,WeatherDisplay:10.37,2014-01-13 03:47:00,
2014-01-12 21:52:00,40.7,34.7,29.57,SSW,192,1.2,3.5,79,0.00,CLR,FEW,0.00,WeatherDisplay:10.37,2014-01-13 03:52:00,
2014-01-12 21:57:00,40.6,34.6,29.56,South,169,2.3,4.0,79,0.00,CLR,FEW,0.00,WeatherDisplay:10.37,2014-01-13 03:57:00,
2014-01-12 22:02:00,40.6,34.6,29.57,SSW,198,1.8,3.5,79,0.00,CLR,FEW,0.00,WeatherDisplay:10.37,2014-01-13 04:02:00,
2014-01-12 22:07:00,40.7,34.7,29.57,South,182,1.7,3.5,79,0.00,CLR,FEW,0.00,WeatherDisplay:10.37,2014-01-13 04:07:00,
2014-01-12 22:12:00,40.7,34.7,29.56,South,175,1.6,3.5,79,0.00,CLR,FEW,0.00,WeatherDisplay:10.37,2014-01-13 04:12:00,
2014-01-12 22:17:00,40.7,34.7,29.57,South,188,1.5,3.5,79,0.00,CLR,FEW,0.00,WeatherDisplay:10.37,2014-01-13 04:17:00,
2014-01-12 22:22:00,40.7,34.7,29.57,SSW,213,2.2,3.5,79,0.00,CLR,FEW,0.00,WeatherDisplay:10.37,2014-01-13 04:22:00,
2014-01-12 22:27:00,40.8,34.5,29.56,SW,223,1.7,3.5,78,0.00,CLR,FEW,0.00,WeatherDisplay:10.37,2014-01-13 04:27:00,
2014-01-12 22:32:00,40.7,34.4,29.56,SW,222,1.3,2.3,78,0.00,CLR,FEW,0.00,WeatherDisplay:10.37,2014-01-13 04:32:00,
2014-01-12 22:37:00,40.7,34.4,29.56,SW,217,2.4,3.5,78,0.00,CLR,FEW,0.00,WeatherDisplay:10.37,2014-01-13 04:37:00,
2014-01-12 22:42:00,40.7,34.4,29.56,SSW,202,2.1,3.5,78,0.00,CLR,FEW,0.00,WeatherDisplay:10.37,2014-01-13 04:42:00,
2014-01-12 22:47:00,40.6,34.6,29.56,SW,232,2.1,5.0,79,0.00,CLR,FEW,0.00,WeatherDisplay:10.37,2014-01-13 04:47:00,
2014-01-12 22:52:00,40.5,34.5,29.56,SW,215,2.3,3.5,79,0.00,CLR,FEW,0.00,WeatherDisplay:10.37,2014-01-13 04:52:00,
2014-01-12 22:57:00,40.4,34.4,29.57,SW,225,1.9,4.0,79,0.00,CLR,FEW,0.00,WeatherDisplay:10.37,2014-01-13 04:57:00,
2014-01-12 23:01:00,40.3,34.3,29.56,WSW,237,2.6,6.9,79,0.00,CLR,FEW,0.00,WeatherDisplay:10.37,2014-01-13 05:01:00,
2014-01-12 23:02:00,40.3,34.3,29.56,SW,236,2.2,6.9,79,0.00,CLR,FEW,0.00,WeatherDisplay:10.37,2014-01-13 05:02:00,
2014-01-12 23:03:00,40.3,34.3,29.56,SW,221,2.9,4.6,79,0.00,CLR,FEW,0.00,WeatherDisplay:10.37,2014-01-13 05:03:00,
2014-01-12 23:04:00,40.3,34.3,29.56,SW,228,2.8,4.6,79,0.00,CLR,FEW,0.00,WeatherDisplay:10.37,2014-01-13 05:04:00,
2014-01-12 23:05:00,40.3,34.3,29.56,SW,223,1.3,3.5,79,0.00,CLR,FEW,0.00,WeatherDisplay:10.37,2014-01-13 05:05:00,
2014-01-12 23:10:00,40.2,34.2,29.56,SW,227,2.0,3.5,79,0.00,CLR,FEW,0.00,WeatherDisplay:10.37,2014-01-13 05:10:00,
2014-01-12 23:15:00,40.1,34.4,29.56,SW,221,1.6,3.5,80,0.00,CLR,FEW,0.00,WeatherDisplay:10.37,2014-01-13 05:15:00,
2014-01-12 23:20:00,39.9,34.2,29.56,SW,221,1.5,2.3,80,0.00,CLR,FEW,0.00,WeatherDisplay:10.37,2014-01-13 05:20:00,
2014-01-12 23:25:00,39.7,34.0,29.56,SW,215,1.8,5.0,80,0.00,CLR,FEW,0.00,WeatherDisplay:10.37,2014-01-13 05:25:00,
2014-01-12 23:30:00,39.7,34.0,29.56,SSW,209,1.3,2.3,80,0.00,CLR,FEW,0.00,WeatherDisplay:10.37,2014-01-13 05:30:00,
2014-01-12 23:35:00,39.5,33.8,29.56,SSW,194,1.9,3.5,80,0.00,CLR,FEW,0.00,WeatherDisplay:10.37,2014-01-13 05:35:00,
2014-01-12 23:40:00,39.4,34.1,29.56,SW,221,1.6,3.5,81,0.00,CLR,FEW,0.00,WeatherDisplay:10.37,2014-01-13 05:40:00,
2014-01-12 23:45:00,39.2,33.9,29.56,SW,221,1.4,5.0,81,0.00,CLR,FEW,0.00,WeatherDisplay:10.37,2014-01-13 05:45:00,
2014-01-12 23:50:00,39.1,33.8,29.56,SW,215,1.3,4.0,81,0.00,CLR,FEW,0.00,WeatherDisplay:10.37,2014-01-13 05:50:00,
2014-01-12 23:55:00,39.0,33.7,29.56,SSW,200,1.4,3.5,81,0.00,CLR,FEW,0.00,WeatherDisplay:10.37,2014-01-13 05:55:00,